createdAt,value
2022-08-11T00:02:07.141Z,18.80
2022-08-11T00:04:47.885Z,18.70
2022-08-11T00:07:20.024Z,18.70
2022-08-11T00:09:52.676Z,18.70
2022-08-11T00:12:24.837Z,18.70
2022-08-11T00:14:59.269Z,18.70
2022-08-11T00:17:34.742Z,18.70
2022-08-11T00:20:16.678Z,18.70
2022-08-11T00:22:50.017Z,18.70
2022-08-11T00:25:22.067Z,18.60
2022-08-11T00:27:53.881Z,18.50
2022-08-11T00:30:25.729Z,18.60
2022-08-11T00:32:58.917Z,18.60
2022-08-11T00:35:51.905Z,18.60
2022-08-11T00:38:26.410Z,18.70
2022-08-11T00:41:40.980Z,18.80
2022-08-11T00:44:46.915Z,18.80
2022-08-11T00:47:34.518Z,18.90
2022-08-11T00:50:25.473Z,18.90
2022-08-11T00:52:57.463Z,19.00
2022-08-11T00:56:05.688Z,19.00
2022-08-11T00:59:26.456Z,19.10
2022-08-11T01:02:39.409Z,19.10
2022-08-11T01:05:34.387Z,19.20
2022-08-11T01:08:25.440Z,19.20
2022-08-11T01:11:55.618Z,19.20
2022-08-11T01:15:04.741Z,19.20
2022-08-11T01:18:01.067Z,19.20
2022-08-11T01:20:50.627Z,19.20
2022-08-11T01:23:47.630Z,19.20
2022-08-11T01:27:18.822Z,19.10
2022-08-11T01:29:54.579Z,19.10
2022-08-11T01:33:03.900Z,19.00
2022-08-11T01:36:03.677Z,18.90
2022-08-11T01:38:44.063Z,18.90
2022-08-11T01:42:09.312Z,18.90
2022-08-11T01:44:58.943Z,18.90
2022-08-11T01:47:52.876Z,18.80
2022-08-11T01:50:31.315Z,18.70
2022-08-11T01:53:35.579Z,18.60
2022-08-11T01:56:43.868Z,18.60
2022-08-11T01:59:28.520Z,18.50
2022-08-11T02:02:21.670Z,18.40
2022-08-11T02:04:53.523Z,18.30
2022-08-11T02:07:52.265Z,18.20
2022-08-11T02:11:08.248Z,18.10
2022-08-11T02:13:48.809Z,18.00
2022-08-11T02:16:55.313Z,17.90
2022-08-11T02:20:18.141Z,17.90
2022-08-11T02:24:04.489Z,17.90
2022-08-11T02:26:15.759Z,17.80
2022-08-11T02:28:54.936Z,17.70
2022-08-11T02:32:25.201Z,17.70
2022-08-11T02:35:11.838Z,17.70
2022-08-11T02:38:01.216Z,17.60
2022-08-11T02:40:45.855Z,17.60
2022-08-11T02:43:36.903Z,17.50
2022-08-11T02:46:24.699Z,17.50
2022-08-11T02:49:32.013Z,17.50
2022-08-11T02:52:14.227Z,17.50
2022-08-11T02:55:03.286Z,17.50
2022-08-11T02:57:43.233Z,17.50
2022-08-11T03:00:17.701Z,17.50
2022-08-11T03:02:49.419Z,17.50
2022-08-11T03:05:39.667Z,17.50
2022-08-11T03:08:32.057Z,17.40
2022-08-11T03:11:25.980Z,17.30
2022-08-11T03:14:16.360Z,17.20
2022-08-11T03:16:51.177Z,17.10
2022-08-11T03:20:00.071Z,17.00
2022-08-11T03:22:49.805Z,16.80
2022-08-11T03:25:34.702Z,16.70
2022-08-11T03:28:28.732Z,16.70
2022-08-11T03:31:19.167Z,16.50
2022-08-11T03:34:08.029Z,16.40
2022-08-11T03:37:43.845Z,15.20
2022-08-11T03:40:38.550Z,16.20
2022-08-11T03:43:39.128Z,16.20
2022-08-11T03:46:35.841Z,16.20
2022-08-11T03:49:26.129Z,16.20
2022-08-11T03:52:15.845Z,16.20
2022-08-11T03:55:13.599Z,16.20
2022-08-11T03:57:56.659Z,16.20
2022-08-11T04:01:06.090Z,16.20
2022-08-11T04:03:57.646Z,16.20
2022-08-11T04:06:53.893Z,16.20
2022-08-11T04:09:46.885Z,16.20
2022-08-11T04:13:16.879Z,16.20
2022-08-11T04:16:10.946Z,16.30
2022-08-11T04:19:06.019Z,16.30
2022-08-11T04:22:15.335Z,16.30
2022-08-11T04:24:59.203Z,16.20
2022-08-11T04:27:56.200Z,16.30
2022-08-11T04:31:10.178Z,16.30
2022-08-11T04:33:42.025Z,16.20
2022-08-11T04:37:28.584Z,16.20
2022-08-11T04:40:23.967Z,16.10
2022-08-11T04:43:33.001Z,16.20
2022-08-11T04:46:23.275Z,16.30
2022-08-11T04:49:33.668Z,16.50
2022-08-11T04:52:35.425Z,16.80
2022-08-11T04:55:40.319Z,17.80
2022-08-11T04:58:55.949Z,19.50
2022-08-11T05:01:43.002Z,20.80
2022-08-11T05:05:25.676Z,21.70
2022-08-11T05:08:00.210Z,22.00
2022-08-11T05:11:52.489Z,22.10
2022-08-11T05:14:59.631Z,22.30
2022-08-11T05:18:19.226Z,22.90
2022-08-11T05:21:13.847Z,23.00
2022-08-11T05:24:16.548Z,22.90
2022-08-11T05:27:13.647Z,22.90
2022-08-11T05:30:19.578Z,22.90
2022-08-11T05:33:25.325Z,23.20
2022-08-11T05:36:12.557Z,23.40
2022-08-11T05:39:18.361Z,23.90
2022-08-11T05:42:09.820Z,24.20
2022-08-11T05:45:58.171Z,24.60
2022-08-11T05:48:50.823Z,24.40
2022-08-11T05:51:55.111Z,24.30
2022-08-11T05:54:47.911Z,24.40
2022-08-11T05:57:49.646Z,24.30
2022-08-11T06:00:14.885Z,24.20
2022-08-11T06:02:55.205Z,24.00
2022-08-11T06:05:38.204Z,23.80
2022-08-11T06:08:15.533Z,23.60
2022-08-11T06:10:47.645Z,23.40
2022-08-11T06:13:23.628Z,23.30
2022-08-11T06:15:57.153Z,23.40
2022-08-11T06:18:30.724Z,23.40
2022-08-11T06:21:09.120Z,23.80
2022-08-11T06:23:42.294Z,24.20
2022-08-11T06:26:14.872Z,24.50
2022-08-11T06:28:48.237Z,24.70
2022-08-11T06:31:24.180Z,24.80
2022-08-11T06:34:29.063Z,24.80
2022-08-11T06:37:35.820Z,24.80
2022-08-11T06:40:30.042Z,24.70
2022-08-11T06:43:19.790Z,24.70
2022-08-11T06:46:05.877Z,24.50
2022-08-11T06:48:40.335Z,24.40
2022-08-11T06:51:12.556Z,24.60
2022-08-11T06:54:04.302Z,24.60
2022-08-11T06:57:26.403Z,24.90
2022-08-11T07:00:08.937Z,25.20
2022-08-11T07:03:08.577Z,25.30
2022-08-11T07:05:58.344Z,25.30
2022-08-11T07:08:57.940Z,25.40
2022-08-11T07:12:08.347Z,25.60
2022-08-11T07:15:11.537Z,25.60
2022-08-11T07:18:12.474Z,25.50
2022-08-11T07:21:03.822Z,25.50
2022-08-11T07:23:56.066Z,25.10
2022-08-11T07:26:47.073Z,24.60
2022-08-11T07:29:21.333Z,24.70
2022-08-11T07:31:54.155Z,25.00
2022-08-11T07:34:36.521Z,25.20
2022-08-11T07:37:17.856Z,25.30
2022-08-11T07:39:50.374Z,25.50
2022-08-11T07:42:27.137Z,25.70
2022-08-11T07:45:18.872Z,26.30
2022-08-11T07:48:11.852Z,26.00
2022-08-11T07:51:03.137Z,25.90
2022-08-11T07:53:58.022Z,25.90
2022-08-11T07:56:54.121Z,26.10
2022-08-11T08:00:02.723Z,26.10
2022-08-11T08:03:03.266Z,26.20
2022-08-11T08:05:54.184Z,26.30
2022-08-11T08:08:45.781Z,26.40
2022-08-11T08:11:39.251Z,26.40
2022-08-11T08:14:30.569Z,26.50
2022-08-11T08:17:21.435Z,26.30
2022-08-11T08:19:53.482Z,26.40
2022-08-11T08:22:37.722Z,26.60
2022-08-11T08:25:11.350Z,26.70
2022-08-11T08:27:45.651Z,26.40
2022-08-11T08:30:36.260Z,26.40
2022-08-11T08:33:08.656Z,26.40
2022-08-11T08:35:55.695Z,26.50
2022-08-11T08:38:29.149Z,26.70
2022-08-11T08:41:01.745Z,26.90
2022-08-11T08:43:47.549Z,27.10
2022-08-11T08:46:27.980Z,27.30
2022-08-11T08:49:02.758Z,27.70
2022-08-11T08:52:02.411Z,27.70
2022-08-11T08:54:42.041Z,27.50
2022-08-11T08:57:15.268Z,27.50
2022-08-11T08:59:51.547Z,27.50
2022-08-11T09:02:34.200Z,27.40
2022-08-11T09:05:09.035Z,27.40
2022-08-11T09:07:41.688Z,27.40
2022-08-11T09:10:17.334Z,27.40
2022-08-11T09:12:50.730Z,27.30
2022-08-11T09:15:24.288Z,27.30
2022-08-11T09:18:03.618Z,27.50
2022-08-11T09:20:38.447Z,27.60
2022-08-11T09:26:40.949Z,27.70
2022-08-11T09:29:13.502Z,27.70
2022-08-11T09:31:46.573Z,27.70
2022-08-11T09:34:19.230Z,27.60
2022-08-11T09:37:09.703Z,27.70
2022-08-11T09:40:00.817Z,27.80
2022-08-11T09:42:51.423Z,27.60
2022-08-11T09:45:23.439Z,27.70
2022-08-11T09:47:57.098Z,28.50
2022-08-11T09:50:29.072Z,28.20
2022-08-11T09:53:36.355Z,28.30
2022-08-11T09:55:58.610Z,28.30
2022-08-11T09:58:42.454Z,28.60
2022-08-11T10:01:27.415Z,28.70
2022-08-11T10:04:34.841Z,28.50
2022-08-11T10:07:10.643Z,28.60
2022-08-11T10:09:56.979Z,28.60
2022-08-11T10:12:38.160Z,28.50
2022-08-11T10:15:30.852Z,28.50
2022-08-11T10:18:29.746Z,28.60
2022-08-11T10:21:07.089Z,28.50
2022-08-11T10:24:00.942Z,28.40
2022-08-11T10:26:54.524Z,28.40
2022-08-11T10:30:05.597Z,28.40
2022-08-11T10:33:00.251Z,28.10
2022-08-11T10:35:33.102Z,27.90
2022-08-11T10:38:06.086Z,27.90
2022-08-11T10:40:46.076Z,27.90
2022-08-11T10:44:01.761Z,28.10
2022-08-11T10:46:30.368Z,28.30
2022-08-11T10:49:02.692Z,28.30
2022-08-11T10:51:54.093Z,28.30
2022-08-11T10:54:51.692Z,28.40
2022-08-11T10:57:42.206Z,28.30
2022-08-11T11:00:36.142Z,28.30
2022-08-11T11:03:23.785Z,28.40
2022-08-11T11:06:29.083Z,28.50
2022-08-11T11:09:12.835Z,28.40
2022-08-11T11:12:17.276Z,28.30
2022-08-11T11:15:16.117Z,28.40
2022-08-11T11:18:04.683Z,28.40
2022-08-11T11:20:47.132Z,28.50
2022-08-11T11:23:27.858Z,28.40
2022-08-11T11:26:15.496Z,28.50
2022-08-11T11:29:25.634Z,28.60
2022-08-11T11:32:35.132Z,28.60
2022-08-11T11:35:15.587Z,28.80
2022-08-11T11:38:00.061Z,28.90
2022-08-11T11:40:38.862Z,29.10
2022-08-11T11:43:11.286Z,29.10
2022-08-11T11:45:43.732Z,28.90
2022-08-11T11:48:15.649Z,28.90
2022-08-11T11:50:49.143Z,28.90
2022-08-11T11:53:21.653Z,28.90
2022-08-11T11:55:53.670Z,28.90
2022-08-11T11:58:45.535Z,29.00
2022-08-11T12:01:19.793Z,29.10
2022-08-11T12:03:53.818Z,29.20
2022-08-11T12:06:27.666Z,29.20
2022-08-11T12:09:00.436Z,29.20
2022-08-11T12:11:51.532Z,29.30
2022-08-11T12:14:25.697Z,29.50
2022-08-11T12:16:58.859Z,29.50
2022-08-11T12:19:35.544Z,29.50
2022-08-11T12:22:26.510Z,29.40
2022-08-11T12:25:17.078Z,29.30
2022-08-11T12:27:49.221Z,29.30
2022-08-11T12:30:21.959Z,29.50
2022-08-11T12:32:54.223Z,29.70
2022-08-11T12:35:26.704Z,29.90
2022-08-11T12:38:09.954Z,29.90
2022-08-11T12:41:18.655Z,30.00
2022-08-11T12:44:10.168Z,29.90
2022-08-11T12:46:45.813Z,29.70
2022-08-11T12:49:44.744Z,29.60
2022-08-11T12:52:27.513Z,29.70
2022-08-11T12:55:14.088Z,29.80
2022-08-11T12:58:06.024Z,29.90
2022-08-11T13:00:56.888Z,30.10
2022-08-11T13:03:52.288Z,30.00
2022-08-11T13:06:30.223Z,29.90
2022-08-11T13:09:02.072Z,29.90
2022-08-11T13:11:55.487Z,29.90
2022-08-11T13:14:33.081Z,29.90
2022-08-11T13:17:40.216Z,30.10
2022-08-11T13:20:21.373Z,30.10
2022-08-11T13:22:56.845Z,30.20
2022-08-11T13:25:32.293Z,30.10
2022-08-11T13:28:05.533Z,30.10
2022-08-11T13:30:55.917Z,29.90
2022-08-11T13:33:28.546Z,29.90
2022-08-11T13:36:01.436Z,29.90
2022-08-11T13:38:34.971Z,30.00
2022-08-11T13:41:27.084Z,30.00
2022-08-11T13:43:59.376Z,30.10
2022-08-11T13:46:34.756Z,30.10
2022-08-11T13:49:11.605Z,30.10
2022-08-11T13:51:44.414Z,29.90
2022-08-11T13:54:22.638Z,29.90
2022-08-11T13:56:57.119Z,29.90
2022-08-11T13:59:30.819Z,29.80
2022-08-11T14:02:28.729Z,29.80
2022-08-11T14:05:05.259Z,29.90
2022-08-11T14:07:57.275Z,30.00
2022-08-11T14:10:32.914Z,29.90
2022-08-11T14:13:42.384Z,29.70
2022-08-11T14:16:40.562Z,29.60
2022-08-11T14:19:14.121Z,29.70
2022-08-11T14:22:07.859Z,29.90
2022-08-11T14:24:42.516Z,29.90
2022-08-11T14:28:32.462Z,30.00
2022-08-11T14:30:28.382Z,30.20
2022-08-11T14:33:00.319Z,30.10
2022-08-11T14:35:50.209Z,30.10
2022-08-11T14:38:22.424Z,30.20
2022-08-11T14:41:13.169Z,30.30
2022-08-11T14:44:13.949Z,30.40
2022-08-11T14:47:05.644Z,30.40
2022-08-11T14:50:09.767Z,30.40
2022-08-11T14:52:49.605Z,30.60
2022-08-11T14:55:42.725Z,30.80
2022-08-11T14:58:19.753Z,30.60
2022-08-11T15:00:59.990Z,30.50
2022-08-11T15:03:33.716Z,30.50
2022-08-11T15:06:06.062Z,30.40
2022-08-11T15:08:54.710Z,30.30
2022-08-11T15:11:49.186Z,30.00
2022-08-11T15:14:39.602Z,29.80
2022-08-11T15:17:14.936Z,29.80
2022-08-11T15:20:06.462Z,29.80
2022-08-11T15:22:57.272Z,29.70
2022-08-11T15:25:30.811Z,29.80
2022-08-11T15:28:23.484Z,29.80
2022-08-11T15:31:16.352Z,29.80
2022-08-11T15:34:11.126Z,29.60
2022-08-11T15:37:05.737Z,29.40
2022-08-11T15:40:32.823Z,29.50
2022-08-11T15:43:32.508Z,29.30
2022-08-11T15:46:17.767Z,29.40
2022-08-11T15:48:59.893Z,29.60
2022-08-11T15:51:43.847Z,29.50
2022-08-11T15:54:23.096Z,29.50
2022-08-11T15:56:57.500Z,29.30
2022-08-11T15:59:52.576Z,29.30
2022-08-11T16:02:45.555Z,29.30
2022-08-11T16:05:45.265Z,29.20
2022-08-11T16:08:11.560Z,29.20
2022-08-11T16:10:46.608Z,29.20
2022-08-11T16:13:22.477Z,29.10
2022-08-11T16:16:15.207Z,29.10
2022-08-11T16:18:58.220Z,29.20
2022-08-11T16:21:36.174Z,29.20
2022-08-11T16:27:05.337Z,29.00
2022-08-11T16:27:13.605Z,29.00
2022-08-11T16:29:48.605Z,29.00
2022-08-11T16:32:23.666Z,29.00
2022-08-11T16:35:20.203Z,29.00
2022-08-11T16:38:12.235Z,29.10
2022-08-11T16:40:44.879Z,29.00
2022-08-11T16:43:37.491Z,28.90
2022-08-11T16:46:18.081Z,28.80
2022-08-11T16:48:53.483Z,28.70
2022-08-11T16:51:25.458Z,28.60
2022-08-11T16:54:05.097Z,28.60
2022-08-11T16:56:45.341Z,28.50
2022-08-11T16:59:26.332Z,28.30
2022-08-11T17:02:06.883Z,28.20
2022-08-11T17:05:03.835Z,28.20
2022-08-11T17:07:58.198Z,28.10
2022-08-11T17:11:03.803Z,28.00
2022-08-11T17:13:42.457Z,27.90
2022-08-11T17:16:20.830Z,27.80
2022-08-11T17:19:05.472Z,27.70
2022-08-11T17:21:59.293Z,27.60
2022-08-11T17:24:34.830Z,27.50
2022-08-11T17:27:08.819Z,27.40
2022-08-11T17:29:57.975Z,27.30
2022-08-11T17:33:01.738Z,27.10
2022-08-11T17:35:40.567Z,27.00
2022-08-11T17:38:20.562Z,26.90
2022-08-11T17:41:18.431Z,26.70
2022-08-11T17:44:14.373Z,26.60
2022-08-11T17:47:06.616Z,26.50
2022-08-11T17:49:39.803Z,26.40
2022-08-11T17:52:35.248Z,26.20
2022-08-11T17:55:51.735Z,26.10
2022-08-11T17:58:39.371Z,25.90
2022-08-11T18:01:13.015Z,25.80
2022-08-11T18:03:53.226Z,25.70
2022-08-11T18:06:34.237Z,25.70
2022-08-11T18:09:34.228Z,25.50
2022-08-11T18:12:26.201Z,25.50
2022-08-11T18:15:17.444Z,25.40
2022-08-11T18:18:09.708Z,25.40
2022-08-11T18:21:00.381Z,25.30
2022-08-11T18:23:50.805Z,25.30
2022-08-11T18:26:43.571Z,25.20
2022-08-11T18:29:42.055Z,25.10
2022-08-11T18:32:49.536Z,25.10
2022-08-11T18:35:41.490Z,25.00
2022-08-11T18:38:34.686Z,24.90
2022-08-11T18:41:28.811Z,24.80
2022-08-11T18:44:23.444Z,24.70
2022-08-11T18:47:15.370Z,24.60
2022-08-11T18:50:12.056Z,24.40
2022-08-11T18:53:10.376Z,24.40
2022-08-11T18:56:03.594Z,24.30
2022-08-11T18:58:55.389Z,24.20
2022-08-11T19:01:47.460Z,24.20
2022-08-11T19:04:39.843Z,24.10
2022-08-11T19:07:32.583Z,24.10
2022-08-11T19:10:24.474Z,24.10
2022-08-11T19:13:17.036Z,24.00
2022-08-11T19:16:08.764Z,24.00
2022-08-11T19:19:00.532Z,23.90
2022-08-11T19:21:52.441Z,23.80
2022-08-11T19:24:45.416Z,23.70
2022-08-11T19:27:37.208Z,23.60
2022-08-11T19:30:28.409Z,23.50
2022-08-11T19:33:59.973Z,23.50
2022-08-11T19:36:31.903Z,23.40
2022-08-11T19:39:22.800Z,23.40
2022-08-11T19:42:15.521Z,23.30
2022-08-11T19:45:06.368Z,23.20
2022-08-11T19:48:20.750Z,23.10
2022-08-11T19:51:07.647Z,23.00
2022-08-11T19:53:59.030Z,23.00
2022-08-11T19:56:51.031Z,22.90
2022-08-11T19:59:44.345Z,22.90
2022-08-11T20:02:35.167Z,22.80
2022-08-11T20:05:26.046Z,22.80
2022-08-11T20:08:18.655Z,22.60
2022-08-11T20:11:10.585Z,22.60
2022-08-11T20:14:02.914Z,22.50
2022-08-11T20:16:53.992Z,22.50
2022-08-11T20:19:55.277Z,22.40
2022-08-11T20:22:49.068Z,22.30
2022-08-11T20:25:42.889Z,22.10
2022-08-11T20:28:36.594Z,22.10
2022-08-11T20:31:28.312Z,22.00
2022-08-11T20:34:20.049Z,22.00
2022-08-11T20:37:12.688Z,21.90
2022-08-11T20:40:04.657Z,21.80
2022-08-11T20:42:56.485Z,21.80
2022-08-11T20:45:55.311Z,21.70
2022-08-11T20:48:50.492Z,21.60
2022-08-11T20:51:40.772Z,21.50
2022-08-11T20:54:38.357Z,21.50
2022-08-11T20:57:58.923Z,21.40
2022-08-11T21:00:47.526Z,21.30
2022-08-11T21:03:44.827Z,21.10
2022-08-11T21:06:45.615Z,21.10
2022-08-11T21:10:00.787Z,20.90
2022-08-11T21:12:50.823Z,20.70
2022-08-11T21:16:02.927Z,20.70
2022-08-11T21:18:54.984Z,20.50
2022-08-11T21:21:49.101Z,20.50
2022-08-11T21:24:42.891Z,20.50
2022-08-11T21:27:40.083Z,20.50
2022-08-11T21:30:30.911Z,20.50
2022-08-11T21:33:21.525Z,20.50
2022-08-11T21:36:12.336Z,20.40
2022-08-11T21:39:04.956Z,20.40
2022-08-11T21:41:57.216Z,20.40
2022-08-11T21:44:48.044Z,20.30
2022-08-11T21:47:43.551Z,20.30
2022-08-11T21:50:34.470Z,20.20
2022-08-11T21:53:25.363Z,20.20
2022-08-11T21:56:17.365Z,20.20
2022-08-11T21:59:09.938Z,20.20
2022-08-11T22:02:01.166Z,20.30
2022-08-11T22:04:52.642Z,20.20
2022-08-11T22:07:43.773Z,20.30
2022-08-11T22:10:42.284Z,20.30
2022-08-11T22:13:33.724Z,20.20
2022-08-11T22:16:24.498Z,20.20
2022-08-11T22:19:19.961Z,20.20
2022-08-11T22:22:10.673Z,20.20
2022-08-11T22:25:03.061Z,20.20
2022-08-11T22:28:06.791Z,20.10
2022-08-11T22:30:57.423Z,19.90
2022-08-11T22:34:02.187Z,19.80
2022-08-11T22:36:54.616Z,19.70
2022-08-11T22:40:01.750Z,19.70
2022-08-11T22:42:53.645Z,19.60
2022-08-11T22:45:44.036Z,19.60
2022-08-11T22:48:37.301Z,19.60
2022-08-11T22:51:28.620Z,19.50
2022-08-11T22:54:23.313Z,19.40
2022-08-11T22:57:14.671Z,19.40
2022-08-11T23:00:05.514Z,19.30
2022-08-11T23:02:57.071Z,19.20
2022-08-11T23:05:48.042Z,19.10
2022-08-11T23:08:41.570Z,19.10
2022-08-11T23:12:07.809Z,19.10
2022-08-11T23:14:44.917Z,19.10
2022-08-11T23:17:35.992Z,19.10
2022-08-11T23:20:36.557Z,19.10
2022-08-11T23:23:38.718Z,19.00
2022-08-11T23:26:29.519Z,18.90
2022-08-11T23:29:21.896Z,18.70
2022-08-11T23:32:12.536Z,18.60
2022-08-11T23:35:39.942Z,18.40
2022-08-11T23:38:20.863Z,18.20
2022-08-11T23:41:11.877Z,18.10
2022-08-11T23:44:03.246Z,18.10
2022-08-11T23:46:54.593Z,17.90
2022-08-11T23:49:45.776Z,17.80
2022-08-11T23:52:37.495Z,17.90
2022-08-11T23:55:28.044Z,17.90
2022-08-11T23:58:18.671Z,18.00
